createdAt,value
2022-09-04T00:00:15.128Z,17.13
2022-09-04T00:02:53.386Z,17.07
2022-09-04T00:05:28.632Z,17.02
2022-09-04T00:08:08.169Z,16.98
2022-09-04T00:10:44.060Z,16.93
2022-09-04T00:13:17.312Z,16.91
2022-09-04T00:15:49.325Z,16.88
2022-09-04T00:18:25.436Z,16.83
2022-09-04T00:21:02.252Z,16.78
2022-09-04T00:23:38.503Z,16.76
2022-09-04T00:26:14.090Z,16.78
2022-09-04T00:28:45.869Z,16.76
2022-09-04T00:31:25.850Z,16.74
2022-09-04T00:34:07.380Z,16.72
2022-09-04T00:36:46.933Z,16.70
2022-09-04T00:39:22.862Z,16.67
2022-09-04T00:42:05.719Z,16.64
2022-09-04T00:44:44.596Z,16.61
2022-09-04T00:47:42.034Z,16.58
2022-09-04T00:50:31.899Z,16.57
2022-09-04T00:53:16.152Z,16.56
2022-09-04T00:56:01.198Z,16.54
2022-09-04T00:58:40.567Z,16.52
2022-09-04T01:01:13.948Z,16.49
2022-09-04T01:03:50.881Z,16.48
2022-09-04T01:06:35.483Z,16.46
2022-09-04T01:09:26.660Z,16.45
2022-09-04T01:12:04.860Z,16.41
2022-09-04T01:14:41.370Z,16.39
2022-09-04T01:17:17.797Z,16.34
2022-09-04T01:19:56.449Z,16.28
2022-09-04T01:22:47.294Z,16.26
2022-09-04T01:25:31.459Z,16.26
2022-09-04T01:28:07.991Z,16.21
2022-09-04T01:30:45.422Z,16.19
2022-09-04T01:33:21.999Z,16.19
2022-09-04T01:35:57.185Z,16.17
2022-09-04T01:38:34.576Z,16.13
2022-09-04T01:41:08.783Z,16.13
2022-09-04T01:43:41.095Z,16.13
2022-09-04T01:46:37.827Z,16.10
2022-09-04T01:49:13.923Z,16.08
2022-09-04T01:51:47.466Z,16.08
2022-09-04T01:54:26.831Z,16.05
2022-09-04T01:57:07.110Z,16.03
2022-09-04T01:59:45.574Z,16.03
2022-09-04T02:02:18.871Z,16.00
2022-09-04T02:04:53.158Z,16.01
2022-09-04T02:07:28.764Z,16.00
2022-09-04T02:10:07.227Z,15.96
2022-09-04T02:12:42.645Z,15.97
2022-09-04T02:15:26.151Z,15.93
2022-09-04T02:18:02.823Z,15.94
2022-09-04T02:20:33.924Z,15.93
2022-09-04T02:23:11.799Z,15.93
2022-09-04T02:25:48.065Z,15.92
2022-09-04T02:28:25.944Z,15.89
2022-09-04T02:31:05.265Z,15.89
2022-09-04T02:33:40.145Z,15.85
2022-09-04T02:36:14.274Z,15.83
2022-09-04T02:38:51.227Z,15.81
2022-09-04T02:41:27.767Z,15.79
2022-09-04T02:44:09.196Z,15.76
2022-09-04T02:46:52.324Z,15.70
2022-09-04T02:49:30.557Z,15.66
2022-09-04T02:52:10.215Z,15.68
2022-09-04T02:54:53.742Z,15.66
2022-09-04T02:57:30.420Z,15.65
2022-09-04T03:00:08.265Z,15.63
2022-09-04T03:02:44.980Z,15.65
2022-09-04T03:05:21.096Z,15.58
2022-09-04T03:07:57.639Z,15.59
2022-09-04T03:10:31.700Z,15.64
2022-09-04T03:13:05.440Z,15.62
2022-09-04T03:15:40.263Z,15.57
2022-09-04T03:18:19.342Z,15.59
2022-09-04T03:20:54.899Z,15.56
2022-09-04T03:23:28.427Z,15.54
2022-09-04T03:26:21.304Z,15.55
2022-09-04T03:29:10.346Z,15.46
2022-09-04T03:31:44.372Z,15.53
2022-09-04T03:34:31.858Z,15.50
2022-09-04T03:37:15.343Z,15.45
2022-09-04T03:39:52.288Z,15.44
2022-09-04T03:42:27.623Z,15.45
2022-09-04T03:45:06.723Z,15.47
2022-09-04T03:47:48.132Z,15.45
2022-09-04T03:50:28.514Z,15.44
2022-09-04T03:53:06.473Z,15.44
2022-09-04T03:56:12.785Z,15.46
2022-09-04T03:58:47.984Z,15.45
2022-09-04T04:01:25.247Z,15.39
2022-09-04T04:04:09.387Z,15.37
2022-09-04T04:06:46.595Z,15.35
2022-09-04T04:09:35.701Z,15.36
2022-09-04T04:12:37.349Z,15.35
2022-09-04T04:15:24.428Z,15.36
2022-09-04T04:18:13.322Z,15.34
2022-09-04T04:20:49.211Z,15.37
2022-09-04T04:24:06.474Z,15.36
2022-09-04T04:26:50.608Z,15.20
2022-09-04T04:29:43.841Z,15.19
2022-09-04T04:32:26.523Z,15.20
2022-09-04T04:35:04.866Z,15.21
2022-09-04T04:37:50.291Z,15.20
2022-09-04T04:40:30.208Z,15.18
2022-09-04T04:43:04.169Z,15.16
2022-09-04T04:45:52.355Z,15.13
2022-09-04T04:48:52.071Z,15.13
2022-09-04T04:51:39.639Z,15.11
2022-09-04T04:54:25.191Z,15.08
2022-09-04T04:57:05.234Z,15.07
2022-09-04T04:59:40.959Z,15.02
2022-09-04T05:02:21.411Z,15.02
2022-09-04T05:04:58.144Z,15.02
2022-09-04T05:07:34.689Z,15.02
2022-09-04T05:10:11.245Z,15.01
2022-09-04T05:12:54.279Z,15.02
2022-09-04T05:15:29.416Z,15.01
2022-09-04T05:18:04.612Z,15.03
2022-09-04T05:20:41.838Z,15.02
2022-09-04T05:23:22.155Z,15.03
2022-09-04T05:26:03.408Z,15.02
2022-09-04T05:28:41.466Z,15.02
2022-09-04T05:31:18.011Z,15.00
2022-09-04T05:33:55.224Z,15.01
2022-09-04T05:36:32.708Z,15.04
2022-09-04T05:39:10.814Z,15.01
2022-09-04T05:41:48.925Z,15.04
2022-09-04T05:44:43.045Z,15.05
2022-09-04T05:47:25.538Z,15.08
2022-09-04T05:50:10.326Z,15.09
2022-09-04T05:52:54.753Z,15.11
2022-09-04T05:55:44.878Z,15.14
2022-09-04T05:58:26.883Z,15.06
2022-09-04T06:01:06.939Z,15.08
2022-09-04T06:03:52.577Z,15.11
2022-09-04T06:06:24.815Z,15.12
2022-09-04T06:09:13.527Z,15.15
2022-09-04T06:11:52.980Z,15.16
2022-09-04T06:14:45.428Z,15.25
2022-09-04T06:17:29.268Z,15.25
2022-09-04T06:24:02.462Z,15.30
2022-09-04T06:26:46.649Z,15.31
2022-09-04T06:29:45.444Z,15.33
2022-09-04T06:32:43.580Z,15.35
2022-09-04T06:35:36.305Z,15.36
2022-09-04T06:38:16.668Z,15.41
2022-09-04T06:40:58.073Z,15.46
2022-09-04T06:43:37.899Z,15.47
2022-09-04T06:46:18.643Z,15.53
2022-09-04T06:48:56.495Z,15.57
2022-09-04T06:51:37.919Z,15.63
2022-09-04T06:54:15.468Z,15.70
2022-09-04T06:56:57.073Z,15.72
2022-09-04T06:59:45.262Z,15.81
2022-09-04T07:02:23.356Z,15.86
2022-09-04T07:05:09.909Z,15.94
2022-09-04T07:07:42.276Z,16.03
2022-09-04T07:10:15.180Z,16.08
2022-09-04T07:13:02.755Z,16.14
2022-09-04T07:16:00.962Z,16.25
2022-09-04T07:18:51.186Z,16.34
2022-09-04T07:21:31.676Z,16.42
2022-09-04T07:24:06.853Z,16.48
2022-09-04T07:26:40.430Z,16.58
2022-09-04T07:29:29.618Z,16.67
2022-09-04T07:32:05.097Z,16.77
2022-09-04T07:34:43.481Z,16.81
2022-09-04T07:37:25.086Z,16.87
2022-09-04T07:40:04.411Z,16.94
2022-09-04T07:42:42.897Z,17.01
2022-09-04T07:45:22.437Z,17.08
2022-09-04T07:48:00.407Z,17.18
2022-09-04T07:50:35.467Z,17.26
2022-09-04T07:53:23.019Z,17.41
2022-09-04T07:55:55.279Z,17.50
2022-09-04T07:58:37.414Z,17.62
2022-09-04T08:01:38.187Z,17.73
2022-09-04T08:04:39.488Z,17.83
2022-09-04T08:07:15.306Z,17.93
2022-09-04T08:10:06.594Z,18.05
2022-09-04T08:13:02.043Z,18.17
2022-09-04T08:15:42.832Z,18.28
2022-09-04T08:18:30.942Z,18.42
2022-09-04T08:21:17.109Z,18.56
2022-09-04T08:24:14.847Z,18.70
2022-09-04T08:26:55.741Z,18.86
2022-09-04T08:29:36.229Z,19.04
2022-09-04T08:32:16.556Z,19.20
2022-09-04T08:35:03.596Z,19.36
2022-09-04T08:37:40.135Z,19.51
2022-09-04T08:40:28.919Z,19.70
2022-09-04T08:43:35.868Z,19.89
2022-09-04T08:46:36.137Z,20.07
2022-09-04T08:49:27.297Z,20.27
2022-09-04T08:52:29.976Z,20.43
2022-09-04T08:55:41.208Z,20.62
2022-09-04T08:58:28.954Z,20.79
2022-09-04T09:01:19.375Z,20.93
2022-09-04T09:04:00.851Z,21.07
2022-09-04T09:07:00.358Z,21.23
2022-09-04T09:09:58.206Z,21.36
2022-09-04T09:13:05.520Z,21.50
2022-09-04T09:16:12.406Z,21.64
2022-09-04T09:18:59.011Z,21.78
2022-09-04T09:21:38.092Z,21.93
2022-09-04T09:24:24.329Z,22.02
2022-09-04T09:27:06.080Z,22.15
2022-09-04T09:30:04.037Z,22.28
2022-09-04T09:32:59.485Z,22.37
2022-09-04T09:35:56.043Z,22.51
2022-09-04T09:39:10.042Z,22.63
2022-09-04T09:42:23.954Z,22.72
2022-09-04T09:45:25.447Z,22.86
2022-09-04T09:48:35.897Z,22.98
2022-09-04T09:51:19.216Z,23.09
2022-09-04T09:54:16.249Z,23.22
2022-09-04T09:57:19.218Z,23.37
2022-09-04T10:00:12.473Z,23.52
2022-09-04T10:03:17.674Z,23.62
2022-09-04T10:06:19.697Z,23.75
2022-09-04T10:09:09.569Z,23.75
2022-09-04T10:12:12.411Z,23.84
2022-09-04T10:15:05.563Z,23.92
2022-09-04T10:18:08.296Z,24.00
2022-09-04T10:21:00.555Z,24.08
2022-09-04T10:23:54.341Z,24.18
2022-09-04T10:26:50.183Z,24.32
2022-09-04T10:29:45.055Z,24.43
2022-09-04T10:32:38.092Z,24.52
2022-09-04T10:35:28.897Z,24.66
2022-09-04T10:38:09.043Z,24.71
2022-09-04T10:40:49.297Z,24.74
2022-09-04T10:43:41.890Z,24.73
2022-09-04T10:46:22.707Z,24.71
2022-09-04T10:49:15.491Z,24.69
2022-09-04T10:52:17.913Z,24.67
2022-09-04T10:55:14.970Z,24.67
2022-09-04T10:57:58.992Z,24.78
2022-09-04T11:00:35.396Z,24.85
2022-09-04T11:03:17.277Z,24.99
2022-09-04T11:06:02.420Z,25.03
2022-09-04T11:08:42.885Z,25.01
2022-09-04T11:11:26.999Z,25.06
2022-09-04T11:14:28.336Z,25.19
2022-09-04T11:17:30.526Z,25.32
2022-09-04T11:20:32.524Z,25.33
2022-09-04T11:23:25.219Z,25.31
2022-09-04T11:26:23.803Z,25.26
2022-09-04T11:29:22.063Z,25.22
2022-09-04T11:32:12.215Z,25.18
2022-09-04T11:35:12.491Z,25.13
2022-09-04T11:38:05.073Z,25.09
2022-09-04T11:41:07.483Z,25.05
2022-09-04T11:44:04.628Z,25.07
2022-09-04T11:47:04.156Z,25.25
2022-09-04T11:49:58.490Z,25.27
2022-09-04T11:52:31.816Z,25.34
2022-09-04T11:55:31.293Z,25.48
2022-09-04T11:58:10.863Z,25.50
2022-09-04T12:00:47.242Z,25.62
2022-09-04T12:03:42.329Z,25.65
2022-09-04T12:06:26.482Z,25.63
2022-09-04T12:09:19.716Z,25.56
2022-09-04T12:12:29.999Z,25.61
2022-09-04T12:15:22.286Z,25.65
2022-09-04T12:18:23.856Z,25.76
2022-09-04T12:21:12.311Z,25.85
2022-09-04T12:24:14.945Z,25.84
2022-09-04T12:27:07.418Z,25.99
2022-09-04T12:30:04.681Z,26.12
2022-09-04T12:33:08.199Z,26.22
2022-09-04T12:36:07.805Z,26.32
2022-09-04T12:39:10.074Z,26.40
2022-09-04T12:41:48.018Z,26.49
2022-09-04T12:44:29.267Z,26.54
2022-09-04T12:47:14.105Z,26.60
2022-09-04T12:49:58.793Z,26.67
2022-09-04T12:52:54.092Z,26.71
2022-09-04T12:55:36.271Z,26.77
2022-09-04T12:58:15.206Z,26.76
2022-09-04T13:00:52.152Z,26.82
2022-09-04T13:03:28.769Z,26.90
2022-09-04T13:06:13.371Z,26.97
2022-09-04T13:08:53.632Z,27.01
2022-09-04T13:11:39.065Z,27.08
2022-09-04T13:14:26.235Z,27.10
2022-09-04T13:16:59.676Z,27.04
2022-09-04T13:19:36.157Z,27.12
2022-09-04T13:22:14.592Z,27.12
2022-09-04T13:24:52.904Z,27.06
2022-09-04T13:27:35.032Z,26.99
2022-09-04T13:30:09.749Z,26.96
2022-09-04T13:33:12.845Z,26.89
2022-09-04T13:35:53.607Z,26.87
2022-09-04T13:38:53.486Z,26.88
2022-09-04T13:41:58.814Z,26.87
2022-09-04T13:44:50.965Z,26.88
2022-09-04T13:47:32.769Z,26.91
2022-09-04T13:50:10.027Z,26.92
2022-09-04T13:52:43.594Z,26.95
2022-09-04T13:55:17.977Z,26.97
2022-09-04T13:57:53.291Z,27.00
2022-09-04T14:00:26.232Z,27.00
2022-09-04T14:03:02.616Z,27.03
2022-09-04T14:05:37.657Z,27.06
2022-09-04T14:08:13.374Z,27.11
2022-09-04T14:11:00.683Z,27.17
2022-09-04T14:13:41.737Z,27.26
2022-09-04T14:16:15.597Z,27.33
2022-09-04T14:19:01.793Z,27.44
2022-09-04T14:21:44.540Z,27.49
2022-09-04T14:24:18.176Z,27.49
2022-09-04T14:26:53.836Z,27.48
2022-09-04T14:29:32.641Z,27.47
2022-09-04T14:32:13.667Z,27.47
2022-09-04T14:34:52.597Z,27.47
2022-09-04T14:37:36.164Z,27.46
2022-09-04T14:40:10.568Z,27.42
2022-09-04T14:42:47.348Z,27.40
2022-09-04T14:45:24.515Z,27.38
2022-09-04T14:47:59.988Z,27.33
2022-09-04T14:50:31.121Z,27.26
2022-09-04T14:53:03.666Z,27.21
2022-09-04T14:55:34.844Z,27.16
2022-09-04T14:58:11.176Z,27.12
2022-09-04T15:00:59.204Z,27.11
2022-09-04T15:03:34.642Z,27.10
2022-09-04T15:06:09.841Z,27.10
2022-09-04T15:08:40.701Z,27.13
2022-09-04T15:11:14.099Z,27.15
2022-09-04T15:13:53.044Z,27.22
2022-09-04T15:16:28.343Z,27.25
2022-09-04T15:19:22.420Z,27.28
2022-09-04T15:22:00.038Z,27.30
2022-09-04T15:24:32.298Z,27.32
2022-09-04T15:27:08.344Z,27.32
2022-09-04T15:29:42.516Z,27.33
2022-09-04T15:32:15.828Z,27.31
2022-09-04T15:34:48.096Z,27.31
2022-09-04T15:37:23.254Z,27.32
2022-09-04T15:40:01.205Z,27.32
2022-09-04T15:42:42.783Z,27.32
2022-09-04T15:45:19.807Z,27.33
2022-09-04T15:48:27.996Z,27.34
2022-09-04T15:51:13.665Z,27.32
2022-09-04T15:53:46.543Z,27.32
2022-09-04T15:56:32.308Z,27.32
2022-09-04T15:59:07.406Z,27.31
2022-09-04T16:01:45.975Z,27.27
2022-09-04T16:04:23.299Z,27.24
2022-09-04T16:06:58.958Z,27.21
2022-09-04T16:09:33.206Z,27.18
2022-09-04T16:12:07.099Z,27.12
2022-09-04T16:14:44.463Z,27.09
2022-09-04T16:17:16.924Z,27.04
2022-09-04T16:19:50.132Z,26.99
2022-09-04T16:22:32.044Z,26.96
2022-09-04T16:25:11.082Z,26.93
2022-09-04T16:27:46.755Z,26.90
2022-09-04T16:30:36.328Z,26.86
2022-09-04T16:33:20.455Z,26.82
2022-09-04T16:35:55.999Z,26.80
2022-09-04T16:38:33.334Z,26.76
2022-09-04T16:41:06.182Z,26.72
2022-09-04T16:43:36.749Z,26.68
2022-09-04T16:46:12.905Z,26.64
2022-09-04T16:48:49.188Z,26.62
2022-09-04T16:51:40.207Z,26.60
2022-09-04T16:54:16.399Z,26.54
2022-09-04T16:56:50.056Z,26.51
2022-09-04T16:59:30.772Z,26.47
2022-09-04T17:02:03.601Z,26.42
2022-09-04T17:04:41.961Z,26.38
2022-09-04T17:07:17.535Z,26.32
2022-09-04T17:09:56.058Z,26.29
2022-09-04T17:12:33.285Z,26.24
2022-09-04T17:15:11.136Z,26.18
2022-09-04T17:17:45.762Z,26.12
2022-09-04T17:20:33.662Z,26.07
2022-09-04T17:29:03.950Z,26.01
2022-09-04T17:29:13.161Z,25.95
2022-09-04T17:29:34.388Z,25.88
2022-09-04T17:34:16.741Z,25.83
2022-09-04T17:40:50.974Z,25.75
2022-09-04T17:40:56.103Z,25.67
2022-09-04T17:41:35.765Z,25.59
2022-09-04T17:44:02.335Z,25.49
2022-09-04T17:46:36.743Z,25.37
2022-09-04T17:49:17.641Z,25.28
2022-09-04T17:51:54.089Z,25.23
2022-09-04T17:54:28.961Z,25.13
2022-09-04T17:57:02.466Z,25.05
2022-09-04T17:59:43.659Z,24.96
2022-09-04T18:02:17.638Z,24.87
2022-09-04T18:04:53.362Z,24.79
2022-09-04T18:08:07.781Z,24.72
2022-09-04T18:10:28.157Z,24.64
2022-09-04T18:13:08.911Z,24.59
2022-09-04T18:16:10.887Z,24.50
2022-09-04T18:18:42.181Z,24.42
2022-09-04T18:21:18.432Z,24.34
2022-09-04T18:23:52.428Z,24.27
2022-09-04T18:26:40.218Z,24.18
2022-09-04T18:31:11.290Z,24.12
2022-09-04T18:37:18.981Z,23.98
2022-09-04T18:37:26.905Z,24.07
2022-09-04T18:38:32.405Z,23.92
2022-09-04T18:44:41.808Z,23.89
2022-09-04T18:50:40.774Z,23.82
2022-09-04T18:50:42.793Z,23.72
2022-09-04T18:50:46.886Z,23.76
2022-09-04T18:52:51.134Z,23.65
2022-09-04T18:55:26.869Z,23.60
2022-09-04T18:57:58.847Z,23.56
2022-09-04T19:00:31.586Z,23.49
2022-09-04T19:03:10.500Z,23.39
2022-09-04T19:05:45.355Z,23.34
2022-09-04T19:08:21.857Z,23.29
2022-09-04T19:10:55.374Z,23.23
2022-09-04T19:13:29.224Z,23.16
2022-09-04T19:16:02.650Z,23.10
2022-09-04T19:18:41.718Z,23.04
2022-09-04T19:21:42.870Z,22.96
2022-09-04T19:24:34.181Z,22.87
2022-09-04T19:27:26.412Z,22.80
2022-09-04T19:30:18.778Z,22.71
2022-09-04T19:33:08.356Z,22.65
2022-09-04T19:35:40.721Z,22.60
2022-09-04T19:41:53.262Z,22.53
2022-09-04T19:46:04.809Z,22.48
2022-09-04T19:46:15.052Z,22.41
2022-09-04T19:47:04.142Z,22.34
2022-09-04T19:53:18.951Z,22.28
2022-09-04T19:53:32.458Z,22.22
2022-09-04T19:55:40.692Z,22.12
2022-09-04T19:58:12.814Z,22.04
2022-09-04T20:00:48.847Z,21.99
2022-09-04T20:03:29.256Z,21.93
2022-09-04T20:06:21.025Z,21.84
2022-09-04T20:08:56.154Z,21.79
2022-09-04T20:11:34.696Z,21.73
2022-09-04T20:14:13.808Z,21.64
2022-09-04T20:16:50.945Z,21.59
2022-09-04T20:19:28.073Z,21.55
2022-09-04T20:22:02.965Z,21.44
2022-09-04T20:24:39.696Z,21.39
2022-09-04T20:27:19.197Z,21.33
2022-09-04T20:29:54.746Z,21.26
2022-09-04T20:32:28.515Z,21.22
2022-09-04T20:35:13.819Z,21.13
2022-09-04T20:37:53.805Z,21.09
2022-09-04T20:40:33.308Z,21.02
2022-09-04T20:43:22.760Z,20.99
2022-09-04T20:48:51.097Z,20.94
2022-09-04T20:52:50.937Z,20.88
2022-09-04T20:52:52.791Z,20.82
2022-09-04T20:55:17.870Z,20.75
2022-09-04T21:03:11.710Z,20.70
2022-09-04T21:03:20.725Z,20.62
2022-09-04T21:04:05.182Z,20.58
2022-09-04T21:06:39.095Z,20.51
2022-09-04T21:09:15.347Z,20.47
2022-09-04T21:11:47.840Z,20.38
2022-09-04T21:14:28.621Z,20.35
2022-09-04T21:17:35.041Z,20.29
2022-09-04T21:20:31.814Z,20.23
2022-09-04T21:23:11.490Z,20.17
2022-09-04T21:25:51.430Z,20.12
2022-09-04T21:28:41.229Z,20.11
2022-09-04T21:31:17.685Z,20.08
2022-09-04T21:34:01.923Z,20.03
2022-09-04T21:36:36.719Z,19.99
2022-09-04T21:39:36.235Z,19.94
2022-09-04T21:42:19.616Z,19.87
2022-09-04T21:45:22.420Z,19.83
2022-09-04T21:48:18.142Z,19.79
2022-09-04T21:51:04.024Z,19.75
2022-09-04T21:54:13.061Z,19.71
2022-09-04T22:02:28.296Z,19.67
2022-09-04T22:02:39.038Z,19.60
2022-09-04T22:03:31.504Z,19.55
2022-09-04T22:06:11.092Z,19.52
2022-09-04T22:13:35.215Z,19.48
2022-09-04T22:13:46.420Z,19.44
2022-09-04T22:14:54.866Z,19.41
2022-09-04T22:17:44.682Z,19.36
2022-09-04T22:20:23.620Z,19.35
2022-09-04T22:23:33.558Z,19.29
2022-09-04T22:26:32.101Z,19.25
2022-09-04T22:29:25.188Z,19.21
2022-09-04T22:32:27.136Z,19.18
2022-09-04T22:35:39.066Z,19.12
2022-09-04T22:38:32.506Z,19.06
2022-09-04T22:41:13.001Z,19.03
2022-09-04T22:43:47.128Z,18.99
2022-09-04T22:46:41.495Z,18.95
2022-09-04T22:49:49.507Z,18.89
2022-09-04T22:52:43.966Z,18.85
2022-09-04T22:56:22.601Z,18.83
2022-09-04T22:58:42.954Z,18.80
2022-09-04T23:01:29.576Z,18.76
2022-09-04T23:04:14.529Z,18.72
2022-09-04T23:10:13.820Z,18.69
2022-09-04T23:13:48.888Z,18.61
2022-09-04T23:14:01.902Z,18.67
2022-09-04T23:16:32.192Z,18.55
2022-09-04T23:26:36.294Z,18.50
2022-09-04T23:26:42.858Z,18.44
2022-09-04T23:26:47.007Z,18.48
2022-09-04T23:28:40.517Z,18.40
2022-09-04T23:31:37.187Z,18.38
2022-09-04T23:34:35.292Z,18.34
2022-09-04T23:37:28.425Z,18.29
2022-09-04T23:40:37.597Z,18.28
2022-09-04T23:43:52.382Z,18.25
2022-09-04T23:46:41.715Z,18.21
2022-09-04T23:49:29.871Z,18.17
2022-09-04T23:52:04.930Z,18.15
2022-09-04T23:55:03.195Z,18.13
2022-09-04T23:57:42.052Z,18.08
